HAZ2127 ZSHC-ZSAM
Flight info
| Callsign | HAZ2127 |
|---|---|
| Flight time | 1h 13m |
| Altitude | 25600 |
| Route | UGAGO8D UGAGO A470 ENVEN ENVEN8X |
| Aircraft | A320/M-SDE3FGHIRWY/LB1 |
Departure
| Time | 2026-05-05 07:29 |
|---|---|
| Airport | Hangzhou Xiaoshan International Airport (ZSHC) |
Arrival
| Time | 2026-05-05 08:42 |
|---|---|
| Airport | Xiamen Gaoqi International Airport (ZSAM) |
| Time | Latitude | Longitude | Altitude | Speed | Heading |
|---|---|---|---|---|---|
| 2026-05-05 06:52 | 30.24211 | 120.42971 | 32 ft | 0 kts | 63° |
| 2026-05-05 07:17 | 30.24205 | 120.42957 | 32 ft | 2 kts | 62° |
| 2026-05-05 07:18 | 30.24198 | 120.42941 | 49 ft | 2 kts | 64° |
| 2026-05-05 07:18 | 30.24190 | 120.42924 | 54 ft | 2 kts | 50° |
| 2026-05-05 07:18 | 30.24177 | 120.42913 | 31 ft | 2 kts | 20° |
| 2026-05-05 07:18 | 30.24161 | 120.42910 | 31 ft | 2 kts | 345° |
| 2026-05-05 07:19 | 30.24146 | 120.42916 | 31 ft | 2 kts | 333° |
| 2026-05-05 07:19 | 30.24139 | 120.42920 | 31 ft | 0 kts | 333° |
| 2026-05-05 07:19 | 30.24139 | 120.42921 | 31 ft | 0 kts | 333° |
| 2026-05-05 07:23 | 30.24141 | 120.42919 | 31 ft | 3 kts | 333° |
| 2026-05-05 07:23 | 30.24201 | 120.42886 | 32 ft | 14 kts | 334° |
| 2026-05-05 07:23 | 30.24285 | 120.42837 | 32 ft | 13 kts | 333° |
| 2026-05-05 07:23 | 30.24384 | 120.42781 | 32 ft | 11 kts | 334° |
| 2026-05-05 07:24 | 30.24429 | 120.42756 | 32 ft | 10 kts | 334° |
| 2026-05-05 07:24 | 30.24507 | 120.42815 | 31 ft | 14 kts | 64° |
| 2026-05-05 07:24 | 30.24541 | 120.42892 | 32 ft | 17 kts | 64° |
| 2026-05-05 07:24 | 30.24600 | 120.43027 | 32 ft | 21 kts | 63° |
| 2026-05-05 07:25 | 30.24674 | 120.43193 | 32 ft | 25 kts | 63° |
| 2026-05-05 07:25 | 30.24783 | 120.43437 | 32 ft | 26 kts | 63° |
| 2026-05-05 07:25 | 30.24839 | 120.43565 | 32 ft | 27 kts | 62° |
| 2026-05-05 07:25 | 30.24926 | 120.43763 | 32 ft | 25 kts | 63° |
| 2026-05-05 07:26 | 30.25008 | 120.43948 | 32 ft | 26 kts | 63° |
| 2026-05-05 07:26 | 30.25074 | 120.44045 | 32 ft | 13 kts | 0° |
| 2026-05-05 07:26 | 30.25109 | 120.44025 | 33 ft | 0 kts | 332° |
| 2026-05-05 07:27 | 30.25151 | 120.44000 | 33 ft | 9 kts | 332° |
| 2026-05-05 07:27 | 30.25201 | 120.43965 | 32 ft | 8 kts | 310° |
| 2026-05-05 07:27 | 30.25185 | 120.43914 | 31 ft | 7 kts | 239° |
| 2026-05-05 07:28 | 30.25151 | 120.43837 | 31 ft | 29 kts | 243° |
| 2026-05-05 07:28 | 30.24938 | 120.43357 | 33 ft | 102 kts | 243° |
| 2026-05-05 07:28 | 30.24523 | 120.42417 | 30 ft | 158 kts | 242° |
| 2026-05-05 07:28 | 30.23962 | 120.41195 | 392 ft | 176 kts | 240° |
| 2026-05-05 07:29 | 30.23403 | 120.39946 | 1203 ft | 173 kts | 239° |
| 2026-05-05 07:29 | 30.22849 | 120.38712 | 1982 ft | 177 kts | 239° |
| 2026-05-05 07:29 | 30.22250 | 120.37368 | 2398 ft | 198 kts | 240° |
| 2026-05-05 07:29 | 30.21581 | 120.35845 | 2757 ft | 226 kts | 240° |
| 2026-05-05 07:30 | 30.20826 | 120.34153 | 3353 ft | 246 kts | 241° |
| 2026-05-05 07:30 | 30.19173 | 120.30436 | 4976 ft | 266 kts | 241° |
| 2026-05-05 07:30 | 30.18329 | 120.28511 | 5923 ft | 271 kts | 241° |
| 2026-05-05 07:31 | 30.17467 | 120.26558 | 6833 ft | 275 kts | 240° |
| 2026-05-05 07:31 | 30.16587 | 120.24584 | 7722 ft | 278 kts | 241° |
| 2026-05-05 07:31 | 30.15695 | 120.22587 | 8659 ft | 281 kts | 242° |
| 2026-05-05 07:31 | 30.14807 | 120.20597 | 9570 ft | 284 kts | 242° |
| 2026-05-05 07:32 | 30.13834 | 120.18601 | 10452 ft | 287 kts | 236° |
| 2026-05-05 07:32 | 30.12667 | 120.16716 | 11303 ft | 289 kts | 235° |
| 2026-05-05 07:32 | 30.11483 | 120.14817 | 12095 ft | 294 kts | 235° |
| 2026-05-05 07:32 | 30.10275 | 120.12884 | 12875 ft | 299 kts | 236° |
| 2026-05-05 07:33 | 30.09050 | 120.10924 | 13669 ft | 303 kts | 236° |
| 2026-05-05 07:33 | 30.07814 | 120.08941 | 14379 ft | 307 kts | 236° |
| 2026-05-05 07:33 | 30.06559 | 120.06928 | 14691 ft | 309 kts | 236° |
| 2026-05-05 07:33 | 30.05303 | 120.04922 | 14779 ft | 308 kts | 236° |
| 2026-05-05 07:34 | 30.04047 | 120.02922 | 14789 ft | 308 kts | 236° |
| 2026-05-05 07:34 | 30.02791 | 120.00920 | 14789 ft | 308 kts | 236° |
| 2026-05-05 07:34 | 30.01641 | 119.98878 | 14793 ft | 315 kts | 242° |
| 2026-05-05 07:34 | 30.00515 | 119.96572 | 14788 ft | 344 kts | 242° |
| 2026-05-05 07:35 | 29.99289 | 119.94079 | 14793 ft | 370 kts | 242° |
| 2026-05-05 07:35 | 29.97992 | 119.91461 | 14789 ft | 379 kts | 242° |
| 2026-05-05 07:35 | 29.96673 | 119.88815 | 14787 ft | 381 kts | 242° |
| 2026-05-05 07:35 | 29.95348 | 119.86166 | 14790 ft | 381 kts | 242° |
| 2026-05-05 07:36 | 29.94023 | 119.83516 | 14795 ft | 382 kts | 241° |
| 2026-05-05 07:36 | 29.92695 | 119.80862 | 14791 ft | 382 kts | 242° |
| 2026-05-05 07:36 | 29.91371 | 119.78203 | 14792 ft | 383 kts | 242° |
| 2026-05-05 07:36 | 29.90047 | 119.75543 | 14790 ft | 382 kts | 242° |
| 2026-05-05 07:37 | 29.88722 | 119.72888 | 14789 ft | 383 kts | 240° |
| 2026-05-05 07:37 | 29.87144 | 119.70465 | 14790 ft | 385 kts | 228° |
| 2026-05-05 07:37 | 29.85103 | 119.68467 | 14790 ft | 388 kts | 216° |
| 2026-05-05 07:37 | 29.82687 | 119.67048 | 14992 ft | 396 kts | 201° |
| 2026-05-05 07:38 | 29.80011 | 119.66281 | 15725 ft | 399 kts | 189° |
| 2026-05-05 07:38 | 29.77229 | 119.66052 | 16385 ft | 402 kts | 185° |
| 2026-05-05 07:38 | 29.74424 | 119.65885 | 17020 ft | 405 kts | 185° |
| 2026-05-05 07:38 | 29.71599 | 119.65696 | 17650 ft | 408 kts | 186° |
| 2026-05-05 07:39 | 29.68755 | 119.65493 | 18273 ft | 411 kts | 186° |
| 2026-05-05 07:39 | 29.65895 | 119.65284 | 18806 ft | 414 kts | 186° |
| 2026-05-05 07:39 | 29.63010 | 119.65073 | 19346 ft | 416 kts | 186° |
| 2026-05-05 07:39 | 29.60111 | 119.64903 | 19880 ft | 419 kts | 185° |
| 2026-05-05 07:40 | 29.57192 | 119.64806 | 20416 ft | 421 kts | 184° |
| 2026-05-05 07:40 | 29.54296 | 119.64751 | 20942 ft | 423 kts | 184° |
| 2026-05-05 07:40 | 29.51352 | 119.64664 | 21468 ft | 424 kts | 185° |
| 2026-05-05 07:40 | 29.48395 | 119.64523 | 21977 ft | 426 kts | 186° |
| 2026-05-05 07:41 | 29.45433 | 119.64342 | 22477 ft | 427 kts | 187° |
| 2026-05-05 07:41 | 29.42461 | 119.64143 | 22941 ft | 429 kts | 187° |
| 2026-05-05 07:41 | 29.39472 | 119.63938 | 23395 ft | 431 kts | 187° |
| 2026-05-05 07:41 | 29.36470 | 119.63736 | 23810 ft | 433 kts | 187° |
| 2026-05-05 07:42 | 29.33451 | 119.63541 | 24188 ft | 435 kts | 187° |
| 2026-05-05 07:42 | 29.30429 | 119.63356 | 24652 ft | 434 kts | 188° |
| 2026-05-05 07:42 | 29.27411 | 119.63174 | 25080 ft | 435 kts | 188° |
| 2026-05-05 07:42 | 29.24381 | 119.62990 | 25452 ft | 436 kts | 188° |
| 2026-05-05 07:43 | 29.21389 | 119.62808 | 25570 ft | 438 kts | 188° |
| 2026-05-05 07:43 | 29.18315 | 119.62618 | 25604 ft | 445 kts | 188° |
| 2026-05-05 07:43 | 29.15217 | 119.62426 | 25598 ft | 447 kts | 188° |
| 2026-05-05 07:43 | 29.12108 | 119.62238 | 25603 ft | 448 kts | 188° |
| 2026-05-05 07:44 | 29.08996 | 119.62053 | 25592 ft | 448 kts | 188° |
| 2026-05-05 07:44 | 29.05885 | 119.61869 | 25601 ft | 446 kts | 189° |
| 2026-05-05 07:44 | 29.02790 | 119.61682 | 25602 ft | 445 kts | 189° |
| 2026-05-05 07:44 | 28.99699 | 119.61489 | 25602 ft | 445 kts | 189° |
| 2026-05-05 07:45 | 28.96607 | 119.61293 | 25611 ft | 445 kts | 189° |
| 2026-05-05 07:45 | 28.93555 | 119.61100 | 25610 ft | 445 kts | 189° |
| 2026-05-05 07:45 | 28.90464 | 119.60906 | 25609 ft | 445 kts | 189° |
| 2026-05-05 07:45 | 28.87372 | 119.60714 | 25609 ft | 445 kts | 189° |
| 2026-05-05 07:46 | 28.84283 | 119.60522 | 25608 ft | 444 kts | 189° |
| 2026-05-05 07:46 | 28.81198 | 119.60327 | 25588 ft | 444 kts | 189° |
| 2026-05-05 07:46 | 28.78116 | 119.60133 | 25591 ft | 443 kts | 189° |
| 2026-05-05 07:46 | 28.75038 | 119.59941 | 25592 ft | 443 kts | 189° |
| 2026-05-05 07:47 | 28.71961 | 119.59752 | 25597 ft | 443 kts | 189° |
| 2026-05-05 07:47 | 28.68883 | 119.59562 | 25591 ft | 443 kts | 189° |
| 2026-05-05 07:47 | 28.65806 | 119.59369 | 25598 ft | 443 kts | 189° |
| 2026-05-05 07:47 | 28.62730 | 119.59177 | 25598 ft | 443 kts | 189° |
| 2026-05-05 07:48 | 28.59652 | 119.58988 | 25595 ft | 443 kts | 189° |
| 2026-05-05 07:48 | 28.56583 | 119.58801 | 25590 ft | 441 kts | 190° |
| 2026-05-05 07:48 | 28.53527 | 119.58616 | 25597 ft | 439 kts | 190° |
| 2026-05-05 07:48 | 28.50522 | 119.58433 | 25604 ft | 438 kts | 190° |
| 2026-05-05 07:49 | 28.47478 | 119.58247 | 25607 ft | 438 kts | 190° |
| 2026-05-05 07:49 | 28.44436 | 119.58061 | 25608 ft | 438 kts | 190° |
| 2026-05-05 07:49 | 28.41390 | 119.57882 | 25607 ft | 438 kts | 190° |
| 2026-05-05 07:49 | 28.38345 | 119.57712 | 25609 ft | 438 kts | 190° |
| 2026-05-05 07:50 | 28.35301 | 119.57550 | 25613 ft | 438 kts | 189° |
| 2026-05-05 07:50 | 28.32256 | 119.57386 | 25587 ft | 438 kts | 190° |
| 2026-05-05 07:50 | 28.29216 | 119.57219 | 25594 ft | 437 kts | 190° |
| 2026-05-05 07:50 | 28.26185 | 119.57052 | 25594 ft | 436 kts | 190° |
| 2026-05-05 07:51 | 28.23154 | 119.56885 | 25599 ft | 436 kts | 190° |
| 2026-05-05 07:51 | 28.20125 | 119.56717 | 25607 ft | 436 kts | 190° |
| 2026-05-05 07:51 | 28.17096 | 119.56549 | 25617 ft | 436 kts | 190° |
| 2026-05-05 07:51 | 28.14068 | 119.56382 | 25610 ft | 435 kts | 190° |
| 2026-05-05 07:52 | 28.11043 | 119.56217 | 25616 ft | 435 kts | 190° |
| 2026-05-05 07:52 | 28.08053 | 119.56078 | 25617 ft | 436 kts | 189° |
| 2026-05-05 07:52 | 28.05027 | 119.56001 | 25619 ft | 435 kts | 189° |
| 2026-05-05 07:52 | 28.01996 | 119.55970 | 25626 ft | 435 kts | 188° |
| 2026-05-05 07:53 | 27.98971 | 119.55957 | 25631 ft | 434 kts | 188° |
| 2026-05-05 07:53 | 27.95957 | 119.55941 | 25646 ft | 434 kts | 188° |
| 2026-05-05 07:53 | 27.92938 | 119.55913 | 25648 ft | 434 kts | 189° |
| 2026-05-05 07:53 | 27.89919 | 119.55879 | 25649 ft | 433 kts | 189° |
| 2026-05-05 07:54 | 27.86903 | 119.55852 | 25659 ft | 434 kts | 188° |
| 2026-05-05 07:54 | 27.83891 | 119.55832 | 25653 ft | 433 kts | 188° |
| 2026-05-05 07:54 | 27.80878 | 119.55816 | 25653 ft | 433 kts | 188° |
| 2026-05-05 07:54 | 27.77865 | 119.55801 | 25651 ft | 433 kts | 188° |
| 2026-05-05 07:55 | 27.74849 | 119.55790 | 25657 ft | 433 kts | 188° |
| 2026-05-05 07:55 | 27.71878 | 119.55778 | 25652 ft | 433 kts | 188° |
| 2026-05-05 07:55 | 27.68867 | 119.55764 | 25649 ft | 432 kts | 188° |
| 2026-05-05 07:55 | 27.65859 | 119.55746 | 25650 ft | 432 kts | 188° |
| 2026-05-05 07:56 | 27.62855 | 119.55724 | 25648 ft | 432 kts | 188° |
| 2026-05-05 07:56 | 27.59850 | 119.55703 | 25649 ft | 432 kts | 188° |
| 2026-05-05 07:56 | 27.56841 | 119.55685 | 25645 ft | 432 kts | 188° |
| 2026-05-05 07:56 | 27.53838 | 119.55672 | 25635 ft | 431 kts | 189° |
| 2026-05-05 07:57 | 27.50843 | 119.55656 | 25643 ft | 430 kts | 189° |
| 2026-05-05 07:57 | 27.47855 | 119.55635 | 25647 ft | 430 kts | 189° |
| 2026-05-05 07:57 | 27.44863 | 119.55614 | 25652 ft | 430 kts | 189° |
| 2026-05-05 07:57 | 27.41878 | 119.55596 | 25647 ft | 426 kts | 189° |
| 2026-05-05 07:58 | 27.38931 | 119.55593 | 25635 ft | 423 kts | 188° |
| 2026-05-05 07:58 | 27.36019 | 119.55592 | 25633 ft | 424 kts | 188° |
| 2026-05-05 07:58 | 27.33068 | 119.55591 | 25641 ft | 425 kts | 188° |
| 2026-05-05 07:58 | 27.30102 | 119.55588 | 25642 ft | 427 kts | 188° |
| 2026-05-05 07:59 | 27.27127 | 119.55585 | 25655 ft | 429 kts | 188° |
| 2026-05-05 07:59 | 27.24130 | 119.55579 | 25659 ft | 430 kts | 188° |
| 2026-05-05 07:59 | 27.21138 | 119.55563 | 25664 ft | 430 kts | 189° |
| 2026-05-05 07:59 | 27.18151 | 119.55542 | 25669 ft | 429 kts | 189° |
| 2026-05-05 08:00 | 27.15165 | 119.55517 | 25671 ft | 429 kts | 189° |
| 2026-05-05 08:00 | 27.12179 | 119.55490 | 25666 ft | 429 kts | 189° |
| 2026-05-05 08:00 | 27.09193 | 119.55469 | 25666 ft | 429 kts | 189° |
| 2026-05-05 08:00 | 27.06210 | 119.55450 | 25665 ft | 428 kts | 189° |
| 2026-05-05 08:01 | 27.03229 | 119.55434 | 25638 ft | 429 kts | 189° |
| 2026-05-05 08:01 | 27.00284 | 119.55417 | 25639 ft | 430 kts | 189° |
| 2026-05-05 08:01 | 26.97297 | 119.55401 | 25640 ft | 429 kts | 189° |
| 2026-05-05 08:01 | 26.94309 | 119.55385 | 25640 ft | 430 kts | 189° |
| 2026-05-05 08:02 | 26.91325 | 119.55366 | 25649 ft | 429 kts | 189° |
| 2026-05-05 08:02 | 26.88336 | 119.55346 | 25645 ft | 429 kts | 189° |
| 2026-05-05 08:02 | 26.85345 | 119.55326 | 25650 ft | 430 kts | 189° |
| 2026-05-05 08:02 | 26.82351 | 119.55309 | 25661 ft | 430 kts | 189° |
| 2026-05-05 08:03 | 26.79359 | 119.55290 | 25656 ft | 430 kts | 189° |
| 2026-05-05 08:03 | 26.76369 | 119.55268 | 25636 ft | 431 kts | 189° |
| 2026-05-05 08:03 | 26.73362 | 119.55242 | 25656 ft | 434 kts | 189° |
| 2026-05-05 08:03 | 26.70341 | 119.55219 | 25661 ft | 435 kts | 189° |
| 2026-05-05 08:04 | 26.67316 | 119.55202 | 25666 ft | 435 kts | 188° |
| 2026-05-05 08:04 | 26.64328 | 119.55189 | 25667 ft | 435 kts | 189° |
| 2026-05-05 08:04 | 26.61305 | 119.55172 | 25666 ft | 434 kts | 188° |
| 2026-05-05 08:04 | 26.58291 | 119.55154 | 25667 ft | 433 kts | 189° |
| 2026-05-05 08:05 | 26.55278 | 119.55132 | 25669 ft | 433 kts | 189° |
| 2026-05-05 08:05 | 26.52259 | 119.55108 | 25671 ft | 434 kts | 189° |
| 2026-05-05 08:05 | 26.49241 | 119.55085 | 25651 ft | 434 kts | 188° |
| 2026-05-05 08:05 | 26.46214 | 119.55065 | 25664 ft | 436 kts | 188° |
| 2026-05-05 08:06 | 26.43186 | 119.55049 | 25664 ft | 435 kts | 189° |
| 2026-05-05 08:06 | 26.40157 | 119.55032 | 25667 ft | 435 kts | 188° |
| 2026-05-05 08:06 | 26.37132 | 119.55014 | 25671 ft | 435 kts | 188° |
| 2026-05-05 08:06 | 26.34103 | 119.54987 | 25675 ft | 436 kts | 188° |
| 2026-05-05 08:07 | 26.31112 | 119.54950 | 25676 ft | 435 kts | 189° |
| 2026-05-05 08:07 | 26.28081 | 119.54910 | 25677 ft | 435 kts | 189° |
| 2026-05-05 08:07 | 26.25057 | 119.54871 | 25678 ft | 435 kts | 189° |
| 2026-05-05 08:07 | 26.22068 | 119.54629 | 25653 ft | 426 kts | 196° |
| 2026-05-05 08:08 | 26.19210 | 119.53880 | 25664 ft | 419 kts | 204° |
| 2026-05-05 08:08 | 26.16422 | 119.52910 | 25674 ft | 420 kts | 204° |
| 2026-05-05 08:08 | 26.13628 | 119.51949 | 25671 ft | 421 kts | 204° |
| 2026-05-05 08:08 | 26.10828 | 119.50995 | 25667 ft | 420 kts | 204° |
| 2026-05-05 08:09 | 26.08028 | 119.50047 | 25663 ft | 420 kts | 204° |
| 2026-05-05 08:09 | 26.05232 | 119.49103 | 25662 ft | 420 kts | 204° |
| 2026-05-05 08:09 | 26.02436 | 119.48159 | 25660 ft | 420 kts | 204° |
| 2026-05-05 08:09 | 25.99674 | 119.47224 | 25667 ft | 420 kts | 204° |
| 2026-05-05 08:10 | 25.96872 | 119.46272 | 25652 ft | 422 kts | 204° |
| 2026-05-05 08:10 | 25.94059 | 119.45313 | 25660 ft | 423 kts | 204° |
| 2026-05-05 08:10 | 25.91246 | 119.44352 | 25662 ft | 423 kts | 204° |
| 2026-05-05 08:10 | 25.88431 | 119.43392 | 25628 ft | 424 kts | 204° |
| 2026-05-05 08:11 | 25.85612 | 119.42433 | 25392 ft | 424 kts | 203° |
| 2026-05-05 08:11 | 25.82791 | 119.41476 | 25161 ft | 424 kts | 203° |
| 2026-05-05 08:11 | 25.79971 | 119.40522 | 24928 ft | 424 kts | 203° |
| 2026-05-05 08:11 | 25.77193 | 119.39452 | 24694 ft | 420 kts | 208° |
| 2026-05-05 08:12 | 25.74609 | 119.37998 | 24471 ft | 415 kts | 216° |
| 2026-05-05 08:12 | 25.72287 | 119.36196 | 24230 ft | 413 kts | 223° |
| 2026-05-05 08:12 | 25.70189 | 119.34026 | 24003 ft | 412 kts | 230° |
| 2026-05-05 08:12 | 25.68237 | 119.31699 | 23781 ft | 413 kts | 230° |
| 2026-05-05 08:13 | 25.66273 | 119.29377 | 23551 ft | 413 kts | 229° |
| 2026-05-05 08:13 | 25.64296 | 119.27057 | 23285 ft | 414 kts | 229° |
| 2026-05-05 08:13 | 25.62312 | 119.24738 | 23041 ft | 415 kts | 229° |
| 2026-05-05 08:13 | 25.60328 | 119.22418 | 22763 ft | 415 kts | 229° |
| 2026-05-05 08:14 | 25.58348 | 119.20103 | 22537 ft | 414 kts | 229° |
| 2026-05-05 08:14 | 25.56370 | 119.17788 | 22270 ft | 413 kts | 228° |
| 2026-05-05 08:14 | 25.54400 | 119.15485 | 22009 ft | 411 kts | 229° |
| 2026-05-05 08:14 | 25.52440 | 119.13192 | 21726 ft | 410 kts | 228° |
| 2026-05-05 08:15 | 25.50480 | 119.10902 | 21479 ft | 409 kts | 229° |
| 2026-05-05 08:15 | 25.48531 | 119.08620 | 21234 ft | 407 kts | 229° |
| 2026-05-05 08:15 | 25.46617 | 119.06377 | 20997 ft | 406 kts | 229° |
| 2026-05-05 08:15 | 25.44681 | 119.04108 | 20751 ft | 404 kts | 229° |
| 2026-05-05 08:16 | 25.42757 | 119.01856 | 20505 ft | 402 kts | 229° |
| 2026-05-05 08:16 | 25.40835 | 118.99610 | 20271 ft | 401 kts | 229° |
| 2026-05-05 08:16 | 25.38920 | 118.97375 | 20036 ft | 400 kts | 229° |
| 2026-05-05 08:16 | 25.37017 | 118.95160 | 19807 ft | 395 kts | 229° |
| 2026-05-05 08:17 | 25.35118 | 118.92951 | 19575 ft | 397 kts | 229° |
| 2026-05-05 08:17 | 25.33219 | 118.90733 | 19327 ft | 397 kts | 229° |
| 2026-05-05 08:17 | 25.31351 | 118.88508 | 19105 ft | 394 kts | 230° |
| 2026-05-05 08:17 | 25.29515 | 118.86280 | 18880 ft | 391 kts | 230° |
| 2026-05-05 08:18 | 25.27694 | 118.84050 | 18657 ft | 390 kts | 230° |
| 2026-05-05 08:18 | 25.25886 | 118.81833 | 18421 ft | 388 kts | 230° |
| 2026-05-05 08:18 | 25.24076 | 118.79628 | 18167 ft | 387 kts | 230° |
| 2026-05-05 08:18 | 25.22262 | 118.77432 | 17912 ft | 387 kts | 230° |
| 2026-05-05 08:19 | 25.20447 | 118.75242 | 17652 ft | 386 kts | 230° |
| 2026-05-05 08:19 | 25.18639 | 118.73061 | 17394 ft | 385 kts | 230° |
| 2026-05-05 08:19 | 25.16832 | 118.70881 | 17140 ft | 384 kts | 230° |
| 2026-05-05 08:19 | 25.15050 | 118.68734 | 16881 ft | 384 kts | 230° |
| 2026-05-05 08:20 | 25.13248 | 118.66561 | 16624 ft | 384 kts | 230° |
| 2026-05-05 08:20 | 25.11452 | 118.64392 | 16405 ft | 382 kts | 230° |
| 2026-05-05 08:20 | 25.09655 | 118.62229 | 16155 ft | 383 kts | 230° |
| 2026-05-05 08:20 | 25.07838 | 118.60066 | 15882 ft | 385 kts | 229° |
| 2026-05-05 08:21 | 25.05995 | 118.57925 | 15643 ft | 385 kts | 229° |
| 2026-05-05 08:21 | 25.04136 | 118.55797 | 15404 ft | 386 kts | 229° |
| 2026-05-05 08:21 | 25.02273 | 118.53678 | 15165 ft | 384 kts | 229° |
| 2026-05-05 08:21 | 25.00419 | 118.51573 | 14932 ft | 383 kts | 229° |
| 2026-05-05 08:22 | 24.98564 | 118.49462 | 14696 ft | 382 kts | 229° |
| 2026-05-05 08:22 | 24.96761 | 118.47403 | 14470 ft | 371 kts | 229° |
| 2026-05-05 08:22 | 24.95008 | 118.45400 | 14236 ft | 356 kts | 229° |
| 2026-05-05 08:22 | 24.93321 | 118.43467 | 14012 ft | 344 kts | 229° |
| 2026-05-05 08:23 | 24.91682 | 118.41591 | 13776 ft | 336 kts | 230° |
| 2026-05-05 08:23 | 24.90086 | 118.39761 | 13509 ft | 326 kts | 230° |
| 2026-05-05 08:23 | 24.88540 | 118.37990 | 13240 ft | 315 kts | 230° |
| 2026-05-05 08:23 | 24.87042 | 118.36276 | 13013 ft | 306 kts | 229° |
| 2026-05-05 08:24 | 24.85591 | 118.34604 | 12744 ft | 298 kts | 232° |
| 2026-05-05 08:24 | 24.84566 | 118.32702 | 12489 ft | 285 kts | 254° |
| 2026-05-05 08:24 | 24.84439 | 118.30568 | 12248 ft | 280 kts | 278° |
| 2026-05-05 08:24 | 24.85200 | 118.28619 | 11997 ft | 281 kts | 301° |
| 2026-05-05 08:25 | 24.86434 | 118.26953 | 11750 ft | 278 kts | 304° |
| 2026-05-05 08:25 | 24.87670 | 118.25339 | 11504 ft | 274 kts | 305° |
| 2026-05-05 08:25 | 24.88714 | 118.23706 | 11266 ft | 255 kts | 294° |
| 2026-05-05 08:25 | 24.89519 | 118.22001 | 11026 ft | 241 kts | 293° |
| 2026-05-05 08:26 | 24.90272 | 118.20388 | 10803 ft | 239 kts | 293° |
| 2026-05-05 08:26 | 24.91027 | 118.18764 | 10565 ft | 238 kts | 293° |
| 2026-05-05 08:26 | 24.91801 | 118.17086 | 10338 ft | 266 kts | 293° |
| 2026-05-05 08:26 | 24.92453 | 118.15164 | 10090 ft | 260 kts | 282° |
| 2026-05-05 08:27 | 24.92874 | 118.13295 | 9925 ft | 243 kts | 282° |
| 2026-05-05 08:27 | 24.93282 | 118.11525 | 9787 ft | 235 kts | 282° |
| 2026-05-05 08:27 | 24.93680 | 118.09804 | 9844 ft | 232 kts | 282° |
| 2026-05-05 08:27 | 24.94076 | 118.08079 | 9868 ft | 232 kts | 282° |
| 2026-05-05 08:28 | 24.94298 | 118.06326 | 9869 ft | 231 kts | 270° |
| 2026-05-05 08:28 | 24.94331 | 118.04552 | 9868 ft | 234 kts | 271° |
| 2026-05-05 08:28 | 24.94368 | 118.02760 | 9870 ft | 232 kts | 270° |
| 2026-05-05 08:28 | 24.94176 | 118.01017 | 9866 ft | 230 kts | 251° |
| 2026-05-05 08:29 | 24.93344 | 117.99532 | 9868 ft | 237 kts | 228° |
| 2026-05-05 08:29 | 24.91946 | 117.98540 | 9762 ft | 246 kts | 203° |
| 2026-05-05 08:29 | 24.90221 | 117.98335 | 9639 ft | 256 kts | 181° |
| 2026-05-05 08:30 | 24.86664 | 117.98676 | 9378 ft | 256 kts | 180° |
| 2026-05-05 08:30 | 24.84891 | 117.98846 | 9247 ft | 256 kts | 180° |
| 2026-05-05 08:30 | 24.83119 | 117.99014 | 9119 ft | 256 kts | 180° |
| 2026-05-05 08:30 | 24.81348 | 117.99179 | 8993 ft | 255 kts | 179° |
| 2026-05-05 08:31 | 24.79579 | 117.99345 | 8868 ft | 255 kts | 179° |
| 2026-05-05 08:31 | 24.77810 | 117.99511 | 8742 ft | 255 kts | 180° |
| 2026-05-05 08:31 | 24.76046 | 117.99675 | 8611 ft | 254 kts | 179° |
| 2026-05-05 08:31 | 24.74290 | 117.99841 | 8490 ft | 253 kts | 179° |
| 2026-05-05 08:32 | 24.72560 | 118.00006 | 8369 ft | 252 kts | 179° |
| 2026-05-05 08:32 | 24.70816 | 118.00170 | 8240 ft | 251 kts | 179° |
| 2026-05-05 08:32 | 24.69076 | 118.00331 | 8115 ft | 251 kts | 179° |
| 2026-05-05 08:32 | 24.67341 | 118.00491 | 7989 ft | 250 kts | 179° |
| 2026-05-05 08:33 | 24.65609 | 118.00652 | 7862 ft | 250 kts | 179° |
| 2026-05-05 08:33 | 24.63879 | 118.00812 | 7739 ft | 249 kts | 179° |
| 2026-05-05 08:33 | 24.62150 | 118.00971 | 7620 ft | 250 kts | 179° |
| 2026-05-05 08:33 | 24.60426 | 118.01133 | 7503 ft | 249 kts | 179° |
| 2026-05-05 08:34 | 24.58707 | 118.01291 | 7371 ft | 247 kts | 181° |
| 2026-05-05 08:34 | 24.57030 | 118.01064 | 7252 ft | 241 kts | 201° |
| 2026-05-05 08:34 | 24.55557 | 118.00232 | 7129 ft | 236 kts | 220° |
| 2026-05-05 08:34 | 24.54404 | 117.98965 | 7009 ft | 235 kts | 230° |
| 2026-05-05 08:35 | 24.53312 | 117.97626 | 6889 ft | 235 kts | 230° |
| 2026-05-05 08:35 | 24.52216 | 117.96290 | 6772 ft | 235 kts | 230° |
| 2026-05-05 08:35 | 24.51137 | 117.94980 | 6599 ft | 236 kts | 229° |
| 2026-05-05 08:35 | 24.50040 | 117.93648 | 6272 ft | 234 kts | 230° |
| 2026-05-05 08:36 | 24.48947 | 117.92321 | 5898 ft | 234 kts | 229° |
| 2026-05-05 08:36 | 24.47850 | 117.90996 | 5534 ft | 235 kts | 227° |
| 2026-05-05 08:36 | 24.46491 | 117.90033 | 5174 ft | 237 kts | 194° |
| 2026-05-05 08:36 | 24.44868 | 117.90146 | 4774 ft | 238 kts | 158° |
| 2026-05-05 08:37 | 24.43502 | 117.91116 | 4270 ft | 235 kts | 134° |
| 2026-05-05 08:37 | 24.42605 | 117.92583 | 3871 ft | 227 kts | 110° |
| 2026-05-05 08:37 | 24.42308 | 117.94223 | 3702 ft | 214 kts | 89° |
| 2026-05-05 08:37 | 24.42540 | 117.95794 | 3496 ft | 205 kts | 70° |
| 2026-05-05 08:38 | 24.43209 | 117.97124 | 3272 ft | 195 kts | 52° |
| 2026-05-05 08:38 | 24.44023 | 117.98254 | 3055 ft | 182 kts | 52° |
| 2026-05-05 08:38 | 24.44789 | 117.99321 | 2801 ft | 175 kts | 52° |
| 2026-05-05 08:38 | 24.45527 | 118.00351 | 2566 ft | 173 kts | 52° |
| 2026-05-05 08:39 | 24.46256 | 118.01368 | 2353 ft | 166 kts | 52° |
| 2026-05-05 08:39 | 24.46945 | 118.02328 | 2141 ft | 152 kts | 52° |
| 2026-05-05 08:39 | 24.47572 | 118.03204 | 1943 ft | 141 kts | 52° |
| 2026-05-05 08:39 | 24.48170 | 118.04039 | 1759 ft | 137 kts | 53° |
| 2026-05-05 08:40 | 24.48758 | 118.04860 | 1576 ft | 137 kts | 53° |
| 2026-05-05 08:40 | 24.49344 | 118.05678 | 1394 ft | 136 kts | 52° |
| 2026-05-05 08:40 | 24.49930 | 118.06496 | 1222 ft | 136 kts | 52° |
| 2026-05-05 08:40 | 24.50507 | 118.07303 | 1039 ft | 132 kts | 52° |
| 2026-05-05 08:41 | 24.51075 | 118.08096 | 869 ft | 131 kts | 52° |
| 2026-05-05 08:41 | 24.51639 | 118.08886 | 680 ft | 130 kts | 53° |
| 2026-05-05 08:41 | 24.52204 | 118.09679 | 514 ft | 133 kts | 54° |
| 2026-05-05 08:41 | 24.52776 | 118.10479 | 332 ft | 134 kts | 54° |
| 2026-05-05 08:42 | 24.53342 | 118.11273 | 164 ft | 134 kts | 53° |
| 2026-05-05 08:42 | 24.53913 | 118.12064 | 55 ft | 125 kts | 53° |
| 2026-05-05 08:42 | 24.54355 | 118.12689 | 52 ft | 79 kts | 52° |
| 2026-05-05 08:42 | 24.54591 | 118.13018 | 48 ft | 34 kts | 52° |
| 2026-05-05 08:43 | 24.54688 | 118.13185 | 51 ft | 24 kts | 73° |
| 2026-05-05 08:43 | 24.54717 | 118.13352 | 50 ft | 21 kts | 82° |
| 2026-05-05 08:43 | 24.54747 | 118.13515 | 49 ft | 23 kts | 64° |
| 2026-05-05 08:43 | 24.54841 | 118.13655 | 46 ft | 12 kts | 52° |
| 2026-05-05 08:44 | 24.54872 | 118.13738 | 48 ft | 13 kts | 120° |
| 2026-05-05 08:44 | 24.54793 | 118.13804 | 47 ft | 16 kts | 141° |
| 2026-05-05 08:44 | 24.54716 | 118.13872 | 48 ft | 4 kts | 139° |
| 2026-05-05 08:44 | 24.54714 | 118.13890 | 47 ft | 2 kts | 69° |
| 2026-05-05 08:45 | 24.54730 | 118.13911 | 47 ft | 7 kts | 52° |
| 2026-05-05 08:45 | 24.54757 | 118.13951 | 45 ft | 6 kts | 53° |
| 2026-05-05 08:45 | 24.54761 | 118.13956 | 46 ft | 0 kts | 53° |